Aviation Digital Data Service (ADDS)

Output produced by TAFs form (1040 UTC 24 April 2018)
found at http://aviationweather.gov/adds/tafs/
 
ELLX 241020Z 24012KT 200V270 9999 FEW032 15/07 Q1019 NOSIG
TAF ELLX 240500Z 2406/2512 25008KT CAVOK 
     TEMPO 2408/2415 SCT035 
     TEMPO 2502/2507 5000 BR SCT006 
     BECMG 2509/2511 BKN012